Emington, Illinois
Current Conditions -  °F | °C
As of 2:55 AM on Saturday 22 Nov 2014 (Local Time) from KPNT Reporting Station
Haze Haze  
Wind Chill: 28°   Ceiling: 1600
Heat Index: 35°   Visibility: 5mi
Dew Point: 34°   Wind: 9mph
Humidity: 95%   Direction: 180°S
Pressure: 30.13"   Gusts: NA
Location:  40.97°N, 88.36°W
Report Text: KPNT 220855Z AUTO 18008KT 5SM BR OVC016 02/01 A3013 RMK AO2 P0001 60019 T00180011
Loading
Personal Weather Stations






























Interactive Weather Map New forecast layout! Learn more

10-Day Weather Forecast

Advertisements
Track Severe Weather on mobile